sensor_id;sensor_type;location;lat;lon;timestamp;pressure;altitude;pressure_sealevel;temperature;humidity
62976;BME280;49071;0.000;0.000;2023-07-20T05:45:34;100522.59;;;23.13;
62976;BME280;49071;0.000;0.000;2023-07-20T05:48:34;100518.28;;;23.12;
62976;BME280;49071;0.000;0.000;2023-07-20T05:51:35;100515.81;;;23.36;
62976;BME280;49071;0.000;0.000;2023-07-20T05:54:36;100523.19;;;23.49;
62976;BME280;49071;0.000;0.000;2023-07-20T05:57:36;100529.38;;;23.40;
62976;BME280;49071;0.000;0.000;2023-07-20T06:00:36;100535.41;;;23.50;
62976;BME280;49071;0.000;0.000;2023-07-20T06:03:36;100528.03;;;23.37;
62976;BME280;49071;0.000;0.000;2023-07-20T06:06:37;100533.94;;;23.31;
62976;BME280;49071;0.000;0.000;2023-07-20T06:09:37;100530.94;;;23.26;
62976;BME280;49071;0.000;0.000;2023-07-20T06:12:37;100535.31;;;23.17;
62976;BME280;49071;0.000;0.000;2023-07-20T06:15:37;100530.94;;;23.26;
62976;BME280;49071;0.000;0.000;2023-07-20T06:18:39;100534.03;;;23.46;
62976;BME280;49071;0.000;0.000;2023-07-20T06:21:39;100546.75;;;23.26;
62976;BME280;49071;0.000;0.000;2023-07-20T06:24:39;100547.34;;;22.95;
62976;BME280;49071;0.000;0.000;2023-07-20T06:27:39;100544.41;;;22.81;
62976;BME280;49071;0.000;0.000;2023-07-20T06:30:39;100533.69;;;22.99;
62976;BME280;49071;0.000;0.000;2023-07-20T06:33:40;100547.13;;;23.31;
62976;BME280;49071;0.000;0.000;2023-07-20T06:36:40;100540.91;;;23.39;
62976;BME280;49071;0.000;0.000;2023-07-20T06:39:40;100538.03;;;23.50;
62976;BME280;49071;0.000;0.000;2023-07-20T06:42:40;100539.44;;;23.62;
62976;BME280;49071;0.000;0.000;2023-07-20T06:45:40;100547.16;;;23.56;
62976;BME280;49071;0.000;0.000;2023-07-20T06:48:41;100536.41;;;23.57;
62976;BME280;49071;0.000;0.000;2023-07-20T06:51:41;100538.63;;;23.62;
62976;BME280;49071;0.000;0.000;2023-07-20T06:54:41;100538.50;;;23.71;
62976;BME280;49071;0.000;0.000;2023-07-20T06:57:41;100537.09;;;23.59;
62976;BME280;49071;0.000;0.000;2023-07-20T07:00:41;100542.31;;;23.51;
62976;BME280;49071;0.000;0.000;2023-07-20T07:03:42;100551.66;;;23.63;
62976;BME280;49071;0.000;0.000;2023-07-20T07:06:43;100554.97;;;23.65;
62976;BME280;49071;0.000;0.000;2023-07-20T07:09:44;100557.75;;;23.64;
62976;BME280;49071;0.000;0.000;2023-07-20T07:12:44;100562.22;;;23.63;
62976;BME280;49071;0.000;0.000;2023-07-20T07:15:44;100557.44;;;23.67;
62976;BME280;49071;0.000;0.000;2023-07-20T07:18:45;100569.81;;;23.66;
62976;BME280;49071;0.000;0.000;2023-07-20T07:21:46;100566.34;;;23.66;
62976;BME280;49071;0.000;0.000;2023-07-20T07:24:46;100562.00;;;23.57;
62976;BME280;49071;0.000;0.000;2023-07-20T07:27:46;100572.47;;;23.66;
62976;BME280;49071;0.000;0.000;2023-07-20T07:30:47;100568.88;;;23.75;
62976;BME280;49071;0.000;0.000;2023-07-20T07:33:47;100564.94;;;23.79;
62976;BME280;49071;0.000;0.000;2023-07-20T07:36:47;100572.84;;;23.79;
62976;BME280;49071;0.000;0.000;2023-07-20T07:39:48;100566.25;;;23.75;
62976;BME280;49071;0.000;0.000;2023-07-20T07:42:48;100580.13;;;23.77;
62976;BME280;49071;0.000;0.000;2023-07-20T07:45:49;100578.44;;;23.76;
62976;BME280;49071;0.000;0.000;2023-07-20T07:48:49;100575.16;;;23.74;
62976;BME280;49071;0.000;0.000;2023-07-20T07:51:49;100574.47;;;23.72;
62976;BME280;49071;0.000;0.000;2023-07-20T07:54:49;100580.44;;;23.74;
62976;BME280;49071;0.000;0.000;2023-07-20T07:57:49;100586.06;;;23.79;
62976;BME280;49071;0.000;0.000;2023-07-20T08:00:49;100578.50;;;23.84;
62976;BME280;49071;0.000;0.000;2023-07-20T08:03:50;100579.19;;;23.86;
62976;BME280;49071;0.000;0.000;2023-07-20T08:06:50;100590.91;;;23.83;
62976;BME280;49071;0.000;0.000;2023-07-20T08:09:51;100588.38;;;23.74;
62976;BME280;49071;0.000;0.000;2023-07-20T08:12:51;100587.06;;;23.78;
62976;BME280;49071;0.000;0.000;2023-07-20T08:15:52;100581.94;;;23.76;
62976;BME280;49071;0.000;0.000;2023-07-20T08:18:52;100589.38;;;23.81;
62976;BME280;49071;0.000;0.000;2023-07-20T08:21:52;100593.38;;;23.85;
62976;BME280;49071;0.000;0.000;2023-07-20T08:24:53;100594.06;;;23.87;
62976;BME280;49071;0.000;0.000;2023-07-20T08:27:53;100596.69;;;23.87;
62976;BME280;49071;0.000;0.000;2023-07-20T08:30:53;100595.03;;;23.86;
62976;BME280;49071;0.000;0.000;2023-07-20T08:33:53;100589.75;;;23.86;
62976;BME280;49071;0.000;0.000;2023-07-20T08:36:53;100593.88;;;23.88;
62976;BME280;49071;0.000;0.000;2023-07-20T08:39:54;100589.75;;;23.86;
62976;BME280;49071;0.000;0.000;2023-07-20T08:42:54;100576.13;;;23.73;
62976;BME280;49071;0.000;0.000;2023-07-20T08:45:54;100582.41;;;23.72;
62976;BME280;49071;0.000;0.000;2023-07-20T08:48:56;100585.03;;;23.72;
62976;BME280;49071;0.000;0.000;2023-07-20T08:51:56;100591.88;;;23.57;
62976;BME280;49071;0.000;0.000;2023-07-20T08:54:57;100584.13;;;23.56;
62976;BME280;49071;0.000;0.000;2023-07-20T08:57:58;100596.88;;;23.43;
62976;BME280;49071;0.000;0.000;2023-07-20T09:00:59;100602.56;;;23.48;
62976;BME280;49071;0.000;0.000;2023-07-20T09:04:01;100602.16;;;23.43;
62976;BME280;49071;0.000;0.000;2023-07-20T09:07:01;100593.88;;;23.55;
62976;BME280;49071;0.000;0.000;2023-07-20T09:10:02;100600.00;;;23.64;
62976;BME280;49071;0.000;0.000;2023-07-20T09:13:05;100598.56;;;23.69;
62976;BME280;49071;0.000;0.000;2023-07-20T09:16:06;100604.06;;;23.75;
62976;BME280;49071;0.000;0.000;2023-07-20T09:19:06;100595.31;;;23.75;
62976;BME280;49071;0.000;0.000;2023-07-20T09:22:06;100589.88;;;23.76;
62976;BME280;49071;0.000;0.000;2023-07-20T09:25:07;100590.84;;;23.75;
62976;BME280;49071;0.000;0.000;2023-07-20T09:28:07;100590.69;;;23.77;
62976;BME280;49071;0.000;0.000;2023-07-20T09:31:20;100599.97;;;23.81;
62976;BME280;49071;0.000;0.000;2023-07-20T09:34:20;100598.00;;;23.83;
62976;BME280;49071;0.000;0.000;2023-07-20T09:37:21;100599.81;;;23.82;
62976;BME280;49071;0.000;0.000;2023-07-20T09:40:22;100589.25;;;23.82;
62976;BME280;49071;0.000;0.000;2023-07-20T09:43:22;100598.44;;;23.78;
62976;BME280;49071;0.000;0.000;2023-07-20T09:46:22;100592.34;;;23.78;
62976;BME280;49071;0.000;0.000;2023-07-20T09:49:23;100595.66;;;23.80;
62976;BME280;49071;0.000;0.000;2023-07-20T09:52:23;100598.31;;;23.80;
62976;BME280;49071;0.000;0.000;2023-07-20T09:55:25;100585.09;;;23.80;
62976;BME280;49071;0.000;0.000;2023-07-20T09:58:26;100584.78;;;23.83;
62976;BME280;49071;0.000;0.000;2023-07-20T10:01:26;100588.91;;;23.85;
62976;BME280;49071;0.000;0.000;2023-07-20T10:04:28;100586.25;;;23.85;
62976;BME280;49071;0.000;0.000;2023-07-20T10:07:29;100593.53;;;23.83;
62976;BME280;49071;0.000;0.000;2023-07-20T10:10:30;100596.00;;;23.85;
62976;BME280;49071;0.000;0.000;2023-07-20T10:13:31;100579.34;;;23.84;
62976;BME280;49071;0.000;0.000;2023-07-20T10:16:34;100582.81;;;23.85;
62976;BME280;49071;0.000;0.000;2023-07-20T10:19:46;100581.84;;;23.86;
62976;BME280;49071;0.000;0.000;2023-07-20T10:22:47;100587.78;;;23.88;
62976;BME280;49071;0.000;0.000;2023-07-20T10:25:48;100585.81;;;23.90;
62976;BME280;49071;0.000;0.000;2023-07-20T10:28:48;100585.81;;;23.90;
62976;BME280;49071;0.000;0.000;2023-07-20T10:31:49;100589.13;;;23.92;
62976;BME280;49071;0.000;0.000;2023-07-20T10:34:53;100585.50;;;23.93;
62976;BME280;49071;0.000;0.000;2023-07-20T10:38:01;100596.75;;;23.95;
62976;BME280;49071;0.000;0.000;2023-07-20T10:41:02;100590.47;;;23.96;
62976;BME280;49071;0.000;0.000;2023-07-20T10:44:06;100592.13;;;23.97;
62976;BME280;49071;0.000;0.000;2023-07-20T10:47:10;100574.63;;;23.96;
62976;BME280;49071;0.000;0.000;2023-07-20T10:50:12;100577.94;;;23.98;
62976;BME280;49071;0.000;0.000;2023-07-20T10:56:12;100584.88;;;23.98;
62976;BME280;49071;0.000;0.000;2023-07-20T10:59:56;100580.56;;;23.98;
62976;BME280;49071;0.000;0.000;2023-07-20T11:02:47;100590.16;;;23.98;
62976;BME280;49071;0.000;0.000;2023-07-20T11:05:47;100589.47;;;23.97;
62976;BME280;49071;0.000;0.000;2023-07-20T11:08:47;100585.19;;;23.96;
62976;BME280;49071;0.000;0.000;2023-07-20T11:11:48;100593.94;;;23.96;
62976;BME280;49071;0.000;0.000;2023-07-20T11:14:55;100589.31;;;23.98;
62976;BME280;49071;0.000;0.000;2023-07-20T11:18:10;100599.06;;;23.98;
62976;BME280;49071;0.000;0.000;2023-07-20T11:21:10;100593.78;;;23.98;
62976;BME280;49071;0.000;0.000;2023-07-20T11:24:11;100601.03;;;23.96;
62976;BME280;49071;0.000;0.000;2023-07-20T11:27:13;100594.75;;;23.97;
62976;BME280;49071;0.000;0.000;2023-07-20T11:30:16;100593.25;;;23.94;
62976;BME280;49071;0.000;0.000;2023-07-20T11:33:16;100598.22;;;23.97;
62976;BME280;49071;0.000;0.000;2023-07-20T11:36:16;100593.78;;;23.98;
62976;BME280;49071;0.000;0.000;2023-07-20T11:39:17;100585.88;;;23.98;
62976;BME280;49071;0.000;0.000;2023-07-20T11:42:19;100589.97;;;24.00;
62976;BME280;49071;0.000;0.000;2023-07-20T11:45:19;100589.00;;;24.01;
62976;BME280;49071;0.000;0.000;2023-07-20T11:48:20;100576.63;;;24.01;
62976;BME280;49071;0.000;0.000;2023-07-20T11:51:20;100577.44;;;24.02;
62976;BME280;49071;0.000;0.000;2023-07-20T11:54:20;100569.50;;;24.02;
62976;BME280;49071;0.000;0.000;2023-07-20T11:57:20;100573.97;;;24.01;
62976;BME280;49071;0.000;0.000;2023-07-20T12:00:24;100572.97;;;24.02;
62976;BME280;49071;0.000;0.000;2023-07-20T12:03:24;100570.34;;;24.02;
62976;BME280;49071;0.000;0.000;2023-07-20T12:06:25;100581.59;;;24.04;
62976;BME280;49071;0.000;0.000;2023-07-20T12:09:25;100586.69;;;24.06;
62976;BME280;49071;0.000;0.000;2023-07-20T12:12:25;100579.59;;;24.06;
62976;BME280;49071;0.000;0.000;2023-07-20T12:15:26;100588.38;;;24.07;
62976;BME280;49071;0.000;0.000;2023-07-20T12:18:34;100587.53;;;24.06;
62976;BME280;49071;0.000;0.000;2023-07-20T12:21:35;100587.38;;;24.08;
62976;BME280;49071;0.000;0.000;2023-07-20T12:24:40;100588.22;;;24.08;
62976;BME280;49071;0.000;0.000;2023-07-20T12:27:40;100579.44;;;24.08;
62976;BME280;49071;0.000;0.000;2023-07-20T12:30:41;100581.09;;;24.09;
62976;BME280;49071;0.000;0.000;2023-07-20T12:33:42;100581.09;;;24.09;
62976;BME280;49071;0.000;0.000;2023-07-20T12:36:42;100581.91;;;24.09;
62976;BME280;49071;0.000;0.000;2023-07-20T12:39:42;100577.50;;;24.10;
62976;BME280;49071;0.000;0.000;2023-07-20T12:42:44;100586.25;;;24.10;
62976;BME280;49071;0.000;0.000;2023-07-20T12:45:45;100576.50;;;24.11;
62976;BME280;49071;0.000;0.000;2023-07-20T12:48:45;100569.38;;;24.11;
62976;BME280;49071;0.000;0.000;2023-07-20T12:51:45;100572.84;;;24.12;
62976;BME280;49071;0.000;0.000;2023-07-20T12:54:45;100575.50;;;24.12;
62976;BME280;49071;0.000;0.000;2023-07-20T12:57:45;100578.13;;;24.12;
62976;BME280;49071;0.000;0.000;2023-07-20T13:00:46;100578.97;;;24.12;
62976;BME280;49071;0.000;0.000;2023-07-20T13:03:46;100586.88;;;24.12;
62976;BME280;49071;0.000;0.000;2023-07-20T13:06:46;100584.25;;;24.12;
62976;BME280;49071;0.000;0.000;2023-07-20T13:09:46;100584.25;;;24.12;
62976;BME280;49071;0.000;0.000;2023-07-20T13:12:46;100576.31;;;24.12;
62976;BME280;49071;0.000;0.000;2023-07-20T13:15:46;100577.19;;;24.13;
62976;BME280;49071;0.000;0.000;2023-07-20T13:18:47;100581.59;;;24.12;
62976;BME280;49071;0.000;0.000;2023-07-20T13:21:48;100579.81;;;24.13;
62976;BME280;49071;0.000;0.000;2023-07-20T13:24:48;100582.47;;;24.13;
62976;BME280;49071;0.000;0.000;2023-07-20T13:27:51;100572.72;;;24.13;
62976;BME280;49071;0.000;0.000;2023-07-20T13:30:51;100570.06;;;24.13;
62976;BME280;49071;0.000;0.000;2023-07-20T13:33:51;100571.72;;;24.14;
62976;BME280;49071;0.000;0.000;2023-07-20T13:36:53;100562.78;;;24.15;
62976;BME280;49071;0.000;0.000;2023-07-20T13:39:53;100581.28;;;24.15;
62976;BME280;49071;0.000;0.000;2023-07-20T13:42:54;100573.34;;;24.15;
62976;BME280;49071;0.000;0.000;2023-07-20T13:45:54;100583.00;;;24.16;
62976;BME280;49071;0.000;0.000;2023-07-20T13:48:54;100573.25;;;24.17;
62976;BME280;49071;0.000;0.000;2023-07-20T13:51:55;100574.06;;;24.17;
62976;BME280;49071;0.000;0.000;2023-07-20T13:54:55;100574.06;;;24.17;
62976;BME280;49071;0.000;0.000;2023-07-20T13:57:55;100568.59;;;24.19;
62976;BME280;49071;0.000;0.000;2023-07-20T14:00:55;100568.78;;;24.17;
62976;BME280;49071;0.000;0.000;2023-07-20T14:03:56;100574.06;;;24.17;
62976;BME280;49071;0.000;0.000;2023-07-20T14:06:56;100572.09;;;24.19;
62976;BME280;49071;0.000;0.000;2023-07-20T14:09:56;100566.81;;;24.19;
62976;BME280;49071;0.000;0.000;2023-07-20T14:12:56;100561.53;;;24.19;
62976;BME280;49071;0.000;0.000;2023-07-20T14:15:56;100564.19;;;24.19;
62976;BME280;49071;0.000;0.000;2023-07-20T14:18:57;100572.09;;;24.19;
62976;BME280;49071;0.000;0.000;2023-07-20T14:21:57;100573.75;;;24.20;
62976;BME280;49071;0.000;0.000;2023-07-20T14:24:59;100569.47;;;24.19;
62976;BME280;49071;0.000;0.000;2023-07-20T14:27:59;100567.13;;;24.16;
62976;BME280;49071;0.000;0.000;2023-07-20T14:30:59;100576.63;;;24.09;
62976;BME280;49071;0.000;0.000;2023-07-20T14:34:00;100584.56;;;24.09;
62976;BME280;49071;0.000;0.000;2023-07-20T14:37:00;100578.31;;;24.10;
62976;BME280;49071;0.000;0.000;2023-07-20T14:40:00;100580.63;;;24.13;
62976;BME280;49071;0.000;0.000;2023-07-20T14:43:00;100585.94;;;24.13;
62976;BME280;49071;0.000;0.000;2023-07-20T14:46:01;100579.81;;;24.13;
62976;BME280;49071;0.000;0.000;2023-07-20T14:49:01;100577.81;;;24.15;
62976;BME280;49071;0.000;0.000;2023-07-20T14:52:02;100582.09;;;24.16;
62976;BME280;49071;0.000;0.000;2023-07-20T14:55:03;100579.97;;;24.11;
62976;BME280;49071;0.000;0.000;2023-07-20T14:58:04;100569.72;;;24.08;
62976;BME280;49071;0.000;0.000;2023-07-20T15:01:04;100570.69;;;24.07;
62976;BME280;49071;0.000;0.000;2023-07-20T15:04:05;100559.31;;;24.07;
62976;BME280;49071;0.000;0.000;2023-07-20T15:07:05;100571.34;;;24.09;
62976;BME280;49071;0.000;0.000;2023-07-20T15:10:05;100551.88;;;24.10;
62976;BME280;49071;0.000;0.000;2023-07-20T15:13:06;100551.88;;;24.10;
62976;BME280;49071;0.000;0.000;2023-07-20T15:16:06;100557.50;;;24.15;
62976;BME280;49071;0.000;0.000;2023-07-20T15:19:08;100545.00;;;24.17;
62976;BME280;49071;0.000;0.000;2023-07-20T15:22:08;100545.66;;;24.19;
62976;BME280;49071;0.000;0.000;2023-07-20T15:25:09;100545.66;;;24.19;
62976;BME280;49071;0.000;0.000;2023-07-20T15:28:12;100546.50;;;24.20;
62976;BME280;49071;0.000;0.000;2023-07-20T15:31:13;100547.31;;;24.20;
62976;BME280;49071;0.000;0.000;2023-07-20T15:34:13;100542.03;;;24.20;
62976;BME280;49071;0.000;0.000;2023-07-20T15:37:15;100547.31;;;24.20;
62976;BME280;49071;0.000;0.000;2023-07-20T15:40:15;100549.97;;;24.20;
62976;BME280;49071;0.000;0.000;2023-07-20T15:43:15;100551.59;;;24.21;
62976;BME280;49071;0.000;0.000;2023-07-20T15:49:19;100548.97;;;24.21;
62976;BME280;49071;0.000;0.000;2023-07-20T15:52:19;100550.63;;;24.22;
62976;BME280;49071;0.000;0.000;2023-07-20T15:55:19;100546.19;;;24.23;
62976;BME280;49071;0.000;0.000;2023-07-20T15:58:19;100551.47;;;24.23;
62976;BME280;49071;0.000;0.000;2023-07-20T16:01:20;100554.94;;;24.23;
62976;BME280;49071;0.000;0.000;2023-07-20T16:04:20;100552.28;;;24.23;
62976;BME280;49071;0.000;0.000;2023-07-20T16:07:21;100550.31;;;24.25;
62976;BME280;49071;0.000;0.000;2023-07-20T16:10:21;100551.13;;;24.26;
62976;BME280;49071;0.000;0.000;2023-07-20T16:13:21;100542.38;;;24.25;
62976;BME280;49071;0.000;0.000;2023-07-20T16:16:22;100544.19;;;24.25;
62976;BME280;49071;0.000;0.000;2023-07-20T16:19:22;100550.31;;;24.25;
62976;BME280;49071;0.000;0.000;2023-07-20T16:22:22;100550.31;;;24.25;
62976;BME280;49071;0.000;0.000;2023-07-20T16:25:22;100551.97;;;24.26;
62976;BME280;49071;0.000;0.000;2023-07-20T16:28:22;100546.69;;;24.26;
62976;BME280;49071;0.000;0.000;2023-07-20T16:31:23;100546.69;;;24.26;
62976;BME280;49071;0.000;0.000;2023-07-20T16:34:23;100545.34;;;24.30;
62976;BME280;49071;0.000;0.000;2023-07-20T16:37:23;100541.88;;;24.29;
62976;BME280;49071;0.000;0.000;2023-07-20T16:40:23;100541.56;;;24.32;
62976;BME280;49071;0.000;0.000;2023-07-20T16:43:24;100540.56;;;24.33;
62976;BME280;49071;0.000;0.000;2023-07-20T16:46:24;100542.38;;;24.33;
62976;BME280;49071;0.000;0.000;2023-07-20T16:49:24;100547.00;;;24.31;
62976;BME280;49071;0.000;0.000;2023-07-20T16:52:27;100535.47;;;24.32;
62976;BME280;49071;0.000;0.000;2023-07-20T16:55:28;100540.75;;;24.32;
62976;BME280;49071;0.000;0.000;2023-07-20T16:58:29;100542.72;;;24.30;
62976;BME280;49071;0.000;0.000;2023-07-20T17:01:29;100541.22;;;24.27;
62976;BME280;49071;0.000;0.000;2023-07-20T17:04:29;100542.88;;;24.28;
62976;BME280;49071;0.000;0.000;2023-07-20T17:07:30;100542.72;;;24.30;
62976;BME280;49071;0.000;0.000;2023-07-20T17:10:30;100542.88;;;24.28;
62976;BME280;49071;0.000;0.000;2023-07-20T17:13:30;100543.72;;;24.29;
62976;BME280;49071;0.000;0.000;2023-07-20T17:16:32;100544.34;;;24.31;
62976;BME280;49071;0.000;0.000;2023-07-20T17:19:33;100547.34;;;24.36;
62976;BME280;49071;0.000;0.000;2023-07-20T17:22:34;100540.75;;;24.40;
62976;BME280;49071;0.000;0.000;2023-07-20T17:25:34;100553.47;;;24.36;
62976;BME280;49071;0.000;0.000;2023-07-20T17:28:35;100544.03;;;24.34;
62976;BME280;49071;0.000;0.000;2023-07-20T17:31:35;100546.03;;;24.32;
62976;BME280;49071;0.000;0.000;2023-07-20T17:34:35;100543.56;;;24.38;
62976;BME280;49071;0.000;0.000;2023-07-20T17:37:35;100548.03;;;24.46;
62976;BME280;49071;0.000;0.000;2023-07-20T17:40:36;100550.34;;;24.49;
62976;BME280;49071;0.000;0.000;2023-07-20T17:43:36;100547.56;;;24.50;
62976;BME280;49071;0.000;0.000;2023-07-20T17:46:36;100548.84;;;24.46;
62976;BME280;49071;0.000;0.000;2023-07-20T17:49:36;100548.22;;;24.44;
62976;BME280;49071;0.000;0.000;2023-07-20T17:52:37;100550.69;;;24.46;
62976;BME280;49071;0.000;0.000;2023-07-20T17:55:38;100560.63;;;24.44;
62976;BME280;49071;0.000;0.000;2023-07-20T17:58:38;100549.03;;;24.45;
62976;BME280;49071;0.000;0.000;2023-07-20T18:01:38;100548.03;;;24.46;
62976;BME280;49071;0.000;0.000;2023-07-20T18:04:38;100550.34;;;24.41;
62976;BME280;49071;0.000;0.000;2023-07-20T18:07:38;100543.88;;;24.43;
62976;BME280;49071;0.000;0.000;2023-07-20T18:10:40;100555.66;;;24.41;
62976;BME280;49071;0.000;0.000;2023-07-20T18:13:40;100555.97;;;24.38;
62976;BME280;49071;0.000;0.000;2023-07-20T18:16:40;100553.81;;;24.41;
62976;BME280;49071;0.000;0.000;2023-07-20T18:19:40;100559.63;;;24.45;
62976;BME280;49071;0.000;0.000;2023-07-20T18:22:41;100566.72;;;24.44;
62976;BME280;49071;0.000;0.000;2023-07-20T18:25:42;100567.88;;;24.42;
62976;BME280;49071;0.000;0.000;2023-07-20T18:28:42;100573.34;;;24.40;
62976;BME280;49071;0.000;0.000;2023-07-20T18:31:42;100571.50;;;24.41;
62976;BME280;49071;0.000;0.000;2023-07-20T18:34:43;100572.66;;;24.38;
62976;BME280;49071;0.000;0.000;2023-07-20T18:37:43;100566.22;;;24.41;
62976;BME280;49071;0.000;0.000;2023-07-20T18:40:43;100573.47;;;24.39;
62976;BME280;49071;0.000;0.000;2023-07-20T18:43:43;100571.84;;;24.38;
62976;BME280;49071;0.000;0.000;2023-07-20T18:46:44;100568.50;;;24.36;
62976;BME280;49071;0.000;0.000;2023-07-20T18:49:44;100580.09;;;24.43;
62976;BME280;49071;0.000;0.000;2023-07-20T18:52:44;100579.78;;;24.46;
62976;BME280;49071;0.000;0.000;2023-07-20T18:55:44;100579.78;;;24.46;
62976;BME280;49071;0.000;0.000;2023-07-20T18:58:44;100591.16;;;24.46;
62976;BME280;49071;0.000;0.000;2023-07-20T19:01:45;100599.28;;;24.45;
62976;BME280;49071;0.000;0.000;2023-07-20T19:04:46;100604.88;;;24.42;
62976;BME280;49071;0.000;0.000;2023-07-20T19:07:46;100601.25;;;24.43;
62976;BME280;49071;0.000;0.000;2023-07-20T19:10:47;100605.22;;;24.39;
62976;BME280;49071;0.000;0.000;2023-07-20T19:13:47;100610.00;;;24.35;
62976;BME280;49071;0.000;0.000;2023-07-20T19:16:47;100617.75;;;24.37;
62976;BME280;49071;0.000;0.000;2023-07-20T19:19:47;100618.44;;;24.39;
62976;BME280;49071;0.000;0.000;2023-07-20T19:22:48;100621.72;;;24.33;
62976;BME280;49071;0.000;0.000;2023-07-20T19:25:48;100624.34;;;24.33;
62976;BME280;49071;0.000;0.000;2023-07-20T19:28:48;100630.97;;;24.37;
62976;BME280;49071;0.000;0.000;2023-07-20T19:31:48;100629.69;;;24.41;
62976;BME280;49071;0.000;0.000;2023-07-20T19:34:48;100637.75;;;24.39;
62976;BME280;49071;0.000;0.000;2023-07-20T19:37:48;100631.16;;;24.35;
62976;BME280;49071;0.000;0.000;2023-07-20T19:40:49;100629.50;;;24.34;
62976;BME280;49071;0.000;0.000;2023-07-20T19:43:49;100636.81;;;24.40;
62976;BME280;49071;0.000;0.000;2023-07-20T19:46:49;100642.91;;;24.41;
62976;BME280;49071;0.000;0.000;2023-07-20T19:49:49;100641.97;;;24.50;
62976;BME280;49071;0.000;0.000;2023-07-20T19:52:49;100645.41;;;24.50;
62976;BME280;49071;0.000;0.000;2023-07-20T19:55:55;100658.47;;;24.44;
